Time;durP1;ratioP1;P1;durP2;ratioP2;P2;SDS_P1;SDS_P2;PMS_P1;PMS_P2;Temp;Humidity;BMP_temperature;BMP_pressure;BME280_temperature;BME280_humidity;BME280_pressure;Samples;Min_cycle;Max_cycle;Signal;HPM_P1;HPM_P2
2022/04/24 00:00:00;;;;;;;9.15;8.15;;;10.30;99.90;;;;;;4994931;28;20038;-67
2022/04/24 00:02:27;;;;;;;8.88;7.72;;;10.30;99.90;;;;;;4995040;28;20066;-67
2022/04/24 00:04:53;;;;;;;11.10;7.63;;;10.20;99.90;;;;;;4995110;28;20105;-67
2022/04/24 00:07:19;;;;;;;10.85;8.20;;;10.20;99.90;;;;;;4995135;28;20404;-67
2022/04/24 00:09:44;;;;;;;11.02;7.70;;;10.20;99.90;;;;;;4994921;28;20038;-67
2022/04/24 00:12:15;;;;;;;10.30;6.95;;;10.10;99.90;;;;;;4994777;28;20050;-67
2022/04/24 00:14:44;;;;;;;9.77;7.57;;;10.10;99.90;;;;;;4993600;28;20052;-67
2022/04/24 00:17:11;;;;;;;10.05;7.68;;;10.00;99.90;;;;;;4994532;28;20050;-67
2022/04/24 00:19:36;;;;;;;10.30;7.45;;;10.00;99.90;;;;;;4993463;28;20126;-67
2022/04/24 00:22:02;;;;;;;10.07;7.72;;;10.00;99.90;;;;;;4994600;28;20113;-67
2022/04/24 00:24:28;;;;;;;9.27;7.60;;;9.90;99.90;;;;;;4994808;28;20042;-67
2022/04/24 00:26:54;;;;;;;10.07;7.63;;;9.90;99.90;;;;;;4993570;28;20500;-67
2022/04/24 00:29:20;;;;;;;8.05;6.97;;;9.90;99.90;;;;;;4994595;28;20082;-66
2022/04/24 00:31:46;;;;;;;9.52;7.35;;;9.90;99.90;;;;;;4994125;28;20038;-67
2022/04/24 00:34:11;;;;;;;11.68;8.10;;;9.80;99.90;;;;;;4994605;28;20052;-67
2022/04/24 00:36:37;;;;;;;11.18;8.25;;;9.80;99.90;;;;;;4994415;28;20042;-66
2022/04/24 00:39:03;;;;;;;12.93;7.72;;;9.80;99.90;;;;;;4994498;28;20043;-67
2022/04/24 00:41:28;;;;;;;10.02;7.68;;;9.80;99.90;;;;;;4994062;28;20061;-66
2022/04/24 00:43:54;;;;;;;11.52;7.43;;;9.70;99.90;;;;;;4994372;28;20069;-67
2022/04/24 00:46:42;;;;;;;11.63;8.25;;;9.70;99.90;;;;;;4994069;28;20097;-67
2022/04/24 00:49:11;;;;;;;10.07;7.63;;;9.70;99.90;;;;;;4994364;28;20132;-66
2022/04/24 00:51:39;;;;;;;11.63;8.48;;;9.60;99.90;;;;;;4993882;28;20042;-66
2022/04/24 00:54:09;;;;;;;10.02;7.78;;;9.70;99.90;;;;;;4994157;28;20030;-67
2022/04/24 00:56:36;;;;;;;9.82;7.78;;;9.60;99.90;;;;;;4993865;28;20456;-67
2022/04/24 00:59:04;;;;;;;9.38;8.05;;;9.60;99.90;;;;;;4993883;28;20050;-67
2022/04/24 01:01:31;;;;;;;9.32;7.20;;;9.50;99.90;;;;;;4993790;28;20117;-67
2022/04/24 01:04:02;;;;;;;10.57;8.38;;;9.50;99.90;;;;;;4994048;28;20045;-66
2022/04/24 01:06:39;;;;;;;11.25;8.35;;;9.50;99.90;;;;;;4993887;28;20042;-67
2022/04/24 01:09:31;;;;;;;11.70;8.93;;;9.50;99.90;;;;;;4992592;28;20045;-66
2022/04/24 01:11:57;;;;;;;12.75;9.82;;;9.50;99.90;;;;;;4993206;28;20058;-66
2022/04/24 01:14:26;;;;;;;10.02;8.43;;;9.40;99.90;;;;;;4993845;28;20407;-67
2022/04/24 01:16:53;;;;;;;9.13;7.32;;;9.40;99.90;;;;;;4993416;28;20046;-67
2022/04/24 01:19:19;;;;;;;10.70;8.80;;;9.40;99.90;;;;;;4993553;28;20412;-67
2022/04/24 01:21:47;;;;;;;10.48;7.70;;;9.40;99.90;;;;;;4992028;28;20068;-66
2022/04/24 01:24:14;;;;;;;9.88;7.47;;;9.40;99.90;;;;;;4993746;28;20511;-67
2022/04/24 01:26:40;;;;;;;9.43;8.20;;;9.40;99.90;;;;;;4993430;28;20468;-67
2022/04/24 01:29:06;;;;;;;10.02;8.05;;;9.40;99.90;;;;;;4993505;28;20129;-67
2022/04/24 01:31:33;;;;;;;10.98;8.82;;;9.30;99.90;;;;;;4993391;28;20505;-67
2022/04/24 01:33:59;;;;;;;12.35;9.50;;;9.40;99.90;;;;;;4993791;28;20038;-67
2022/04/24 01:36:25;;;;;;;10.68;8.40;;;9.30;99.90;;;;;;4991957;28;20053;-67
2022/04/24 01:38:50;;;;;;;11.05;8.65;;;9.30;99.90;;;;;;4993098;28;20050;-67
2022/04/24 01:41:16;;;;;;;11.70;8.65;;;9.30;99.90;;;;;;4993084;28;20481;-66
2022/04/24 01:43:42;;;;;;;11.63;8.45;;;9.30;99.90;;;;;;4993423;28;20042;-67
2022/04/24 01:46:08;;;;;;;11.25;8.90;;;9.20;99.90;;;;;;4993185;28;20042;-67
2022/04/24 01:48:34;;;;;;;12.02;8.93;;;9.10;99.90;;;;;;4993319;28;20150;-66
2022/04/24 01:51:04;;;;;;;11.45;8.65;;;9.10;99.90;;;;;;4992727;28;20124;-67
2022/04/24 01:53:30;;;;;;;10.50;8.30;;;9.10;99.90;;;;;;4993206;28;20042;-66
2022/04/24 01:55:57;;;;;;;10.93;8.40;;;9.10;99.90;;;;;;4993098;28;20046;-67
2022/04/24 01:58:23;;;;;;;11.00;8.68;;;9.10;99.90;;;;;;4992845;28;20124;-66
2022/04/24 02:00:49;;;;;;;10.75;8.60;;;9.10;99.90;;;;;;4992563;28;20035;-66
2022/04/24 02:03:15;;;;;;;12.23;9.30;;;9.10;99.90;;;;;;4992806;28;20093;-66
2022/04/24 02:05:40;;;;;;;11.02;8.88;;;9.00;99.90;;;;;;4992624;28;20135;-66
2022/04/24 02:08:06;;;;;;;11.48;9.25;;;9.00;99.90;;;;;;4992665;28;20133;-66
2022/04/24 02:10:32;;;;;;;12.02;8.52;;;9.00;99.90;;;;;;4992612;28;20125;-66
2022/04/24 02:12:58;;;;;;;12.90;8.63;;;9.00;99.90;;;;;;4991628;28;20050;-66
2022/04/24 02:15:23;;;;;;;14.32;9.15;;;9.00;99.90;;;;;;4992674;28;20089;-66
2022/04/24 02:17:49;;;;;;;10.75;7.95;;;9.00;99.90;;;;;;4992431;28;20132;-66
2022/04/24 02:20:15;;;;;;;11.18;9.35;;;8.90;99.90;;;;;;4991050;28;20073;-67
2022/04/24 02:22:40;;;;;;;9.88;8.15;;;8.90;99.90;;;;;;4992742;28;20038;-67
2022/04/24 02:25:06;;;;;;;9.93;8.30;;;9.00;99.90;;;;;;4992645;28;20039;-67
2022/04/24 02:27:32;;;;;;;10.20;8.43;;;9.00;99.90;;;;;;4992527;28;20050;-67
2022/04/24 02:29:58;;;;;;;12.48;8.20;;;8.90;99.90;;;;;;4992271;28;20039;-67
2022/04/24 02:32:23;;;;;;;11.23;7.72;;;8.90;99.90;;;;;;4992416;28;20500;-67
2022/04/24 02:34:49;;;;;;;10.93;8.32;;;8.90;99.90;;;;;;4992327;28;20161;-67
2022/04/24 02:37:14;;;;;;;10.23;8.30;;;9.00;99.90;;;;;;4992285;28;20053;-66
2022/04/24 02:39:40;;;;;;;14.00;8.38;;;8.90;99.90;;;;;;4991031;28;20121;-67
2022/04/24 02:42:06;;;;;;;11.82;8.15;;;8.90;99.90;;;;;;4992208;28;20122;-67
2022/04/24 02:44:31;;;;;;;11.43;8.40;;;8.90;99.90;;;;;;4992295;28;20442;-66
2022/04/24 02:46:57;;;;;;;10.48;7.90;;;8.90;99.90;;;;;;4992190;28;20042;-66
2022/04/24 02:49:22;;;;;;;15.25;9.00;;;8.80;99.90;;;;;;4992832;28;20042;-66
2022/04/24 02:51:48;;;;;;;10.27;8.05;;;8.80;99.90;;;;;;4996148;28;20130;-66
2022/04/24 02:54:13;;;;;;;10.52;8.43;;;8.90;99.90;;;;;;4996262;28;20044;-66
2022/04/24 02:56:39;;;;;;;9.82;8.00;;;8.80;99.90;;;;;;4996250;28;20079;-66
2022/04/24 02:59:04;;;;;;;9.65;7.85;;;8.80;99.90;;;;;;4996204;28;20046;-66
2022/04/24 03:01:30;;;;;;;13.57;8.43;;;8.90;99.90;;;;;;4995792;28;20042;-66
2022/04/24 03:03:58;;;;;;;10.77;7.72;;;8.80;99.90;;;;;;4996032;28;20146;-66
2022/04/24 03:06:24;;;;;;;13.93;8.27;;;8.80;99.90;;;;;;4995964;28;20038;-66
2022/04/24 03:08:49;;;;;;;9.07;8.10;;;8.70;99.90;;;;;;4996186;28;20103;-67
2022/04/24 03:11:15;;;;;;;10.55;8.27;;;8.80;99.90;;;;;;4995757;28;20053;-67
2022/04/24 03:13:42;;;;;;;10.60;9.35;;;8.70;99.90;;;;;;4996400;28;20093;-67
2022/04/24 03:16:08;;;;;;;9.73;7.70;;;8.80;99.90;;;;;;4995821;28;20042;-67
2022/04/24 03:18:33;;;;;;;12.43;7.78;;;8.70;99.90;;;;;;4995660;28;20057;-66
2022/04/24 03:20:59;;;;;;;10.73;9.18;;;8.70;99.90;;;;;;4992026;28;20396;-67
2022/04/24 03:23:24;;;;;;;12.35;7.88;;;8.60;99.90;;;;;;4995794;28;20069;-67
2022/04/24 03:25:50;;;;;;;10.85;7.80;;;8.60;99.90;;;;;;4995637;28;20042;-67
2022/04/24 03:28:17;;;;;;;8.20;7.38;;;8.60;99.90;;;;;;4995568;28;20093;-66
2022/04/24 03:30:45;;;;;;;11.55;7.70;;;8.60;99.90;;;;;;4995394;28;20492;-66
2022/04/24 03:33:11;;;;;;;11.25;8.45;;;8.50;99.90;;;;;;4995480;28;20108;-66
2022/04/24 03:35:37;;;;;;;9.82;7.53;;;8.50;99.90;;;;;;4995568;28;20496;-66
2022/04/24 03:38:03;;;;;;;11.23;8.32;;;8.50;99.90;;;;;;4995142;28;20112;-66
2022/04/24 03:40:28;;;;;;;11.32;7.50;;;8.40;99.90;;;;;;4995266;28;20125;-66
2022/04/24 03:42:54;;;;;;;11.27;7.75;;;8.50;99.90;;;;;;4995529;28;20121;-66
2022/04/24 03:45:20;;;;;;;10.30;8.10;;;8.40;99.90;;;;;;4995355;28;20043;-66
2022/04/24 03:47:47;;;;;;;10.90;7.35;;;8.40;99.90;;;;;;4995236;28;20496;-66
2022/04/24 03:50:14;;;;;;;10.90;8.30;;;8.40;99.90;;;;;;4995208;28;20085;-66
2022/04/24 03:52:39;;;;;;;12.35;7.90;;;8.40;99.90;;;;;;4995463;28;20053;-66
2022/04/24 03:55:06;;;;;;;9.98;7.22;;;8.40;99.90;;;;;;4995337;28;20042;-66
2022/04/24 03:57:32;;;;;;;11.05;7.78;;;8.40;99.90;;;;;;4995027;28;20038;-66
2022/04/24 03:59:57;;;;;;;11.68;7.47;;;8.40;99.90;;;;;;4994813;28;20045;-66
2022/04/24 04:02:23;;;;;;;8.93;7.35;;;8.40;99.90;;;;;;4994959;28;20038;-67
2022/04/24 04:04:49;;;;;;;9.18;7.55;;;8.30;99.90;;;;;;4995001;28;20042;-66
2022/04/24 04:07:14;;;;;;;11.43;7.70;;;8.30;99.90;;;;;;4995022;28;20431;-66
2022/04/24 04:09:40;;;;;;;11.70;7.15;;;8.40;99.90;;;;;;4994949;28;20046;-66
2022/04/24 04:12:07;;;;;;;10.90;7.82;;;8.40;99.90;;;;;;4994688;28;20073;-66
2022/04/24 04:14:32;;;;;;;12.82;7.47;;;8.40;99.90;;;;;;4994751;28;20053;-66
2022/04/24 04:16:58;;;;;;;18.45;8.05;;;8.30;99.90;;;;;;4994847;28;20117;-66
2022/04/24 04:19:23;;;;;;;9.27;7.32;;;8.30;99.90;;;;;;4994856;28;20556;-66
2022/04/24 04:21:49;;;;;;;10.13;7.50;;;8.10;99.90;;;;;;4994347;28;20034;-66
2022/04/24 04:24:16;;;;;;;13.02;7.70;;;8.20;99.90;;;;;;4994631;28;20045;-66
2022/04/24 04:26:41;;;;;;;10.50;7.53;;;8.20;99.90;;;;;;4994433;28;20073;-66
2022/04/24 04:29:07;;;;;;;10.00;7.53;;;8.20;99.90;;;;;;4994420;28;20074;-66
2022/04/24 04:31:33;;;;;;;12.00;7.57;;;8.20;99.90;;;;;;4994485;28;20492;-66
2022/04/24 04:33:58;;;;;;;12.00;7.78;;;8.20;99.90;;;;;;4994581;28;20068;-66
2022/04/24 04:36:24;;;;;;;13.90;7.80;;;8.20;99.90;;;;;;4994231;28;20053;-66
2022/04/24 04:38:50;;;;;;;9.35;7.15;;;8.20;99.90;;;;;;4994242;28;20093;-67
2022/04/24 04:41:15;;;;;;;11.63;8.00;;;8.20;99.90;;;;;;4994040;28;20046;-66
2022/04/24 04:43:41;;;;;;;13.55;8.05;;;8.20;99.90;;;;;;4994267;28;20034;-66
2022/04/24 04:46:06;;;;;;;11.68;7.50;;;8.20;99.90;;;;;;4994132;28;20500;-66
2022/04/24 04:48:32;;;;;;;11.93;7.85;;;8.10;99.90;;;;;;4994312;28;20069;-67
2022/04/24 04:50:57;;;;;;;12.13;6.97;;;8.10;99.90;;;;;;4993979;28;20065;-67
2022/04/24 04:53:23;;;;;;;12.52;8.45;;;8.20;99.90;;;;;;4992806;28;20046;-67
2022/04/24 04:55:49;;;;;;;12.73;8.95;;;8.20;99.90;;;;;;4994073;28;20126;-67
2022/04/24 04:58:15;;;;;;;11.95;8.05;;;8.20;99.90;;;;;;4993773;28;20038;-66
2022/04/24 05:00:41;;;;;;;12.98;8.20;;;8.30;99.90;;;;;;4993565;28;20046;-66
2022/04/24 05:03:07;;;;;;;12.00;9.10;;;8.30;99.90;;;;;;4994143;28;20385;-66
2022/04/24 05:05:32;;;;;;;13.32;8.85;;;8.30;99.90;;;;;;4993982;28;20030;-66
2022/04/24 05:07:58;;;;;;;12.95;9.30;;;8.40;99.90;;;;;;4993891;28;20042;-66
2022/04/24 05:10:24;;;;;;;12.30;8.98;;;8.50;99.90;;;;;;4993577;28;20034;-66
2022/04/24 05:12:50;;;;;;;15.07;10.23;;;8.50;99.90;;;;;;4993002;28;20103;-66
2022/04/24 05:15:16;;;;;;;13.88;9.90;;;8.50;99.90;;;;;;4993874;28;20042;-66
2022/04/24 05:17:43;;;;;;;13.60;9.13;;;8.50;99.90;;;;;;4993666;28;20046;-66
2022/04/24 05:20:11;;;;;;;15.18;10.40;;;8.60;99.90;;;;;;4993586;28;20493;-66
2022/04/24 05:22:38;;;;;;;16.15;9.93;;;8.50;99.90;;;;;;4993551;28;20176;-66
2022/04/24 05:25:05;;;;;;;15.82;10.52;;;8.50;99.90;;;;;;4993589;28;20047;-67
2022/04/24 05:27:31;;;;;;;17.88;10.77;;;8.60;99.90;;;;;;4993312;28;20054;-67
2022/04/24 05:29:58;;;;;;;14.13;9.82;;;8.60;99.90;;;;;;4993328;28;20069;-67
2022/04/24 05:32:23;;;;;;;14.10;10.30;;;8.60;99.90;;;;;;4993307;28;20125;-67
2022/04/24 05:34:49;;;;;;;15.15;9.77;;;8.60;99.90;;;;;;4993479;28;20117;-66
2022/04/24 05:37:14;;;;;;;12.88;9.60;;;8.60;99.90;;;;;;4993051;28;20042;-66
2022/04/24 05:39:40;;;;;;;15.00;10.07;;;8.70;99.90;;;;;;4993205;28;20065;-66
2022/04/24 05:42:06;;;;;;;15.13;9.70;;;8.80;99.90;;;;;;4992835;28;20101;-66
2022/04/24 05:44:31;;;;;;;13.50;9.55;;;9.10;99.90;;;;;;4993379;28;20092;-66
2022/04/24 05:46:57;;;;;;;14.35;9.73;;;9.30;99.90;;;;;;4993030;28;20500;-67
2022/04/24 05:49:23;;;;;;;11.98;8.43;;;9.30;99.90;;;;;;4993167;28;20452;-67
2022/04/24 05:51:48;;;;;;;16.40;9.85;;;9.50;99.90;;;;;;4992899;28;20042;-67
2022/04/24 05:54:15;;;;;;;16.92;9.32;;;9.60;99.90;;;;;;4993013;28;20030;-67
2022/04/24 05:56:41;;;;;;;13.30;9.02;;;9.80;99.90;;;;;;4992815;28;20420;-67
2022/04/24 05:59:08;;;;;;;13.10;8.57;;;10.00;99.90;;;;;;4993061;28;20049;-67
2022/04/24 06:01:34;;;;;;;13.85;8.50;;;10.20;99.90;;;;;;4992642;28;20034;-67
2022/04/24 06:03:59;;;;;;;15.48;7.97;;;10.30;99.90;;;;;;4992991;28;20064;-67
2022/04/24 06:06:25;;;;;;;11.80;7.70;;;10.50;99.90;;;;;;4992818;28;20535;-66
2022/04/24 06:08:51;;;;;;;15.63;8.10;;;10.60;99.90;;;;;;4992743;28;20045;-67
2022/04/24 06:11:18;;;;;;;9.63;7.00;;;10.50;99.90;;;;;;4992288;28;20038;-67
2022/04/24 06:13:45;;;;;;;10.10;7.13;;;10.50;99.90;;;;;;4992866;28;20046;-67
2022/04/24 06:16:11;;;;;;;10.27;6.97;;;10.70;99.90;;;;;;4992622;28;20562;-67
2022/04/24 06:18:36;;;;;;;15.20;6.00;;;10.90;99.90;;;;;;4992527;28;20042;-67
2022/04/24 06:21:02;;;;;;;9.50;5.90;;;11.00;99.30;;;;;;4992335;28;20030;-66
2022/04/24 06:23:29;;;;;;;7.40;5.72;;;10.90;99.00;;;;;;4992119;28;20117;-67
2022/04/24 06:25:55;;;;;;;8.90;5.70;;;11.10;98.70;;;;;;4990638;28;20046;-67
2022/04/24 06:28:21;;;;;;;9.50;5.20;;;11.20;98.10;;;;;;4991405;28;20451;-67
2022/04/24 06:30:47;;;;;;;8.27;5.10;;;11.30;97.20;;;;;;4992088;28;20038;-67
2022/04/24 06:33:14;;;;;;;6.30;3.92;;;11.30;97.70;;;;;;4992410;28;20053;-67
2022/04/24 06:35:40;;;;;;;7.18;4.80;;;11.30;96.70;;;;;;4992439;28;20042;-66
2022/04/24 06:38:05;;;;;;;12.45;5.72;;;11.30;96.40;;;;;;4992058;28;20046;-67
2022/04/24 06:40:32;;;;;;;7.35;5.15;;;11.40;94.50;;;;;;4991782;28;20411;-67
2022/04/24 06:42:59;;;;;;;6.47;4.30;;;11.40;93.60;;;;;;4992469;28;20042;-66
2022/04/24 06:45:31;;;;;;;6.38;4.85;;;11.50;94.20;;;;;;4992444;28;20089;-66
2022/04/24 06:48:01;;;;;;;5.20;4.07;;;11.70;93.80;;;;;;4991100;28;20038;-66
2022/04/24 06:50:28;;;;;;;7.28;4.22;;;11.80;93.60;;;;;;4991975;28;20053;-66
2022/04/24 06:53:00;;;;;;;7.55;4.03;;;12.00;93.60;;;;;;4992183;28;20081;-66
2022/04/24 06:55:27;;;;;;;6.05;3.95;;;12.00;91.00;;;;;;4992410;28;20092;-67
2022/04/24 06:57:53;;;;;;;7.95;4.10;;;12.30;90.00;;;;;;4992207;28;20042;-67
2022/04/24 07:00:20;;;;;;;6.82;3.50;;;12.00;87.60;;;;;;4991981;28;20113;-67
2022/04/24 07:02:46;;;;;;;4.90;3.60;;;12.00;87.90;;;;;;4992195;28;20407;-67
2022/04/24 07:05:12;;;;;;;4.50;3.50;;;12.00;85.80;;;;;;4991097;28;20050;-67
2022/04/24 07:07:38;;;;;;;5.22;3.53;;;12.10;86.50;;;;;;4991928;28;20051;-66
2022/04/24 07:10:04;;;;;;;6.82;3.42;;;12.30;83.80;;;;;;4991961;28;20042;-66
2022/04/24 07:12:30;;;;;;;5.07;3.20;;;12.50;82.20;;;;;;4992085;28;20047;-67
2022/04/24 07:14:56;;;;;;;6.43;3.22;;;12.60;81.90;;;;;;4992076;28;20045;-67
2022/04/24 07:17:21;;;;;;;5.95;3.72;;;12.60;79.50;;;;;;4991838;28;20404;-67
2022/04/24 07:19:47;;;;;;;7.63;2.92;;;12.60;80.70;;;;;;4991874;28;20049;-67
2022/04/24 07:22:15;;;;;;;3.90;3.13;;;12.70;80.70;;;;;;4991596;28;20117;-67
2022/04/24 07:24:41;;;;;;;6.18;2.83;;;12.80;77.10;;;;;;4992020;28;20049;-67
2022/04/24 07:27:06;;;;;;;4.75;2.97;;;12.70;77.00;;;;;;4991956;28;20039;-66
2022/04/24 07:29:32;;;;;;;7.95;2.88;;;12.90;77.40;;;;;;4992021;28;20035;-66
2022/04/24 07:31:57;;;;;;;13.27;4.00;;;13.00;77.10;;;;;;4993201;28;20130;-67
2022/04/24 07:34:23;;;;;;;5.13;3.17;;;12.90;75.00;;;;;;5000380;28;20396;-67
2022/04/24 07:36:49;;;;;;;7.68;3.53;;;13.00;74.60;;;;;;5004607;28;20038;-67
2022/04/24 07:39:14;;;;;;;4.35;2.97;;;12.90;73.50;;;;;;5010154;28;20050;-67
2022/04/24 07:41:40;;;;;;;6.38;3.38;;;13.20;73.10;;;;;;5013547;28;20042;-66
2022/04/24 07:44:06;;;;;;;3.13;2.20;;;13.30;71.70;;;;;;5015154;28;20087;-67
2022/04/24 07:46:34;;;;;;;3.40;2.67;;;13.40;71.80;;;;;;5014947;28;20045;-66
2022/04/24 07:48:59;;;;;;;6.53;3.20;;;13.50;70.70;;;;;;5014810;28;20423;-67
2022/04/24 07:51:25;;;;;;;5.78;3.50;;;13.40;69.00;;;;;;5014516;28;20038;-67
2022/04/24 07:53:50;;;;;;;6.38;3.83;;;13.70;69.40;;;;;;5014917;28;20042;-66
2022/04/24 07:56:16;;;;;;;6.07;3.33;;;13.70;69.80;;;;;;5012074;28;20045;-66
2022/04/24 07:58:41;;;;;;;5.07;3.40;;;13.90;68.50;;;;;;5014328;28;20052;-66
2022/04/24 08:01:07;;;;;;;6.82;3.58;;;14.20;67.90;;;;;;5013896;28;20419;-66
2022/04/24 08:03:33;;;;;;;8.43;3.08;;;14.00;65.40;;;;;;5003376;28;20057;-66
2022/04/24 08:05:59;;;;;;;9.38;3.20;;;13.70;65.70;;;;;;5011729;28;20045;-67
2022/04/24 08:08:24;;;;;;;5.25;3.40;;;13.80;66.50;;;;;;5014751;28;20040;-66
2022/04/24 08:10:56;;;;;;;7.15;3.67;;;13.70;66.70;;;;;;5014445;28;20041;-67
2022/04/24 08:13:22;;;;;;;6.35;3.00;;;14.00;67.80;;;;;;5014627;28;20046;-67
2022/04/24 08:15:49;;;;;;;6.28;3.55;;;14.30;67.90;;;;;;5014528;28;20381;-67
2022/04/24 08:18:15;;;;;;;6.10;3.40;;;14.60;66.50;;;;;;5014181;28;20068;-67
2022/04/24 08:20:42;;;;;;;4.53;3.20;;;14.50;65.30;;;;;;5014336;28;20064;-67
2022/04/24 08:23:10;;;;;;;7.22;3.22;;;14.50;63.00;;;;;;5014623;28;20072;-67
2022/04/24 08:25:36;;;;;;;6.32;2.95;;;14.20;63.30;;;;;;5014368;28;20074;-68
2022/04/24 08:28:06;;;;;;;7.15;3.33;;;14.60;63.20;;;;;;5014575;28;20053;-67
2022/04/24 08:30:34;;;;;;;5.72;3.85;;;14.50;61.40;;;;;;5014103;28;20096;-67
2022/04/24 08:32:59;;;;;;;5.63;3.25;;;14.60;61.70;;;;;;5004145;28;20034;-67
2022/04/24 08:35:25;;;;;;;7.05;2.95;;;14.60;61.90;;;;;;5004435;28;20121;-67
2022/04/24 08:37:50;;;;;;;5.75;3.88;;;14.80;62.10;;;;;;4998434;28;20154;-67
2022/04/24 08:40:18;;;;;;;4.35;2.83;;;15.00;61.80;;;;;;4979071;28;20034;-67
2022/04/24 08:42:44;;;;;;;4.40;3.05;;;14.80;60.70;;;;;;4978734;28;20035;-67
2022/04/24 08:45:12;;;;;;;4.22;3.10;;;14.60;61.50;;;;;;4974799;28;20039;-67
2022/04/24 08:47:38;;;;;;;5.32;2.92;;;14.70;60.50;;;;;;4973287;28;20038;-67
2022/04/24 08:50:04;;;;;;;5.10;3.22;;;14.50;60.70;;;;;;4989474;28;20050;-67
2022/04/24 08:52:32;;;;;;;6.38;3.17;;;14.70;60.60;;;;;;4994182;28;20046;-67
2022/04/24 08:54:58;;;;;;;5.95;3.50;;;14.90;61.70;;;;;;4986864;28;20046;-67
2022/04/24 08:57:30;;;;;;;4.90;3.28;;;14.90;60.70;;;;;;4992785;28;20500;-67
2022/04/24 08:59:57;;;;;;;4.35;2.90;;;14.90;59.90;;;;;;4993632;28;20053;-67
2022/04/24 09:02:23;;;;;;;6.13;3.40;;;14.90;59.20;;;;;;4993973;28;20046;-67
2022/04/24 09:04:49;;;;;;;4.82;3.08;;;14.80;58.70;;;;;;4994115;28;20038;-66
2022/04/24 09:07:17;;;;;;;4.65;3.40;;;15.00;58.90;;;;;;4993628;28;20521;-66
2022/04/24 09:09:50;;;;;;;6.47;3.08;;;14.90;58.30;;;;;;4993847;28;20061;-67
2022/04/24 09:12:18;;;;;;;9.27;3.05;;;15.00;57.00;;;;;;4993607;28;20046;-67
2022/04/24 09:14:55;;;;;;;6.32;3.75;;;14.80;58.40;;;;;;4993529;28;20126;-67
2022/04/24 09:17:26;;;;;;;5.82;2.97;;;14.80;57.50;;;;;;4993442;28;20042;-66
2022/04/24 09:19:54;;;;;;;7.22;3.20;;;15.20;57.90;;;;;;4993356;28;20056;-67
2022/04/24 09:22:20;;;;;;;4.88;3.22;;;15.20;57.50;;;;;;4992206;28;20054;-67
2022/04/24 09:24:59;;;;;;;6.63;3.40;;;15.10;57.20;;;;;;4993597;28;20038;-67
2022/04/24 09:27:25;;;;;;;4.97;2.97;;;15.10;56.70;;;;;;4993239;28;20042;-67
2022/04/24 09:29:54;;;;;;;7.07;3.10;;;15.40;57.40;;;;;;4993439;28;20092;-67
2022/04/24 09:32:21;;;;;;;5.88;3.08;;;15.30;56.10;;;;;;4993298;28;20050;-67
2022/04/24 09:34:46;;;;;;;6.55;3.65;;;15.30;56.20;;;;;;4993358;28;20058;-67
2022/04/24 09:37:12;;;;;;;5.28;3.30;;;15.20;57.00;;;;;;4992908;28;20476;-68
2022/04/24 09:39:38;;;;;;;5.45;3.00;;;15.30;56.90;;;;;;4992869;28;20455;-67
2022/04/24 09:42:11;;;;;;;4.13;3.25;;;15.20;56.40;;;;;;4992972;28;20599;-67
2022/04/24 09:44:44;;;;;;;6.13;3.03;;;15.20;56.90;;;;;;4992836;28;20180;-67
2022/04/24 09:47:10;;;;;;;5.22;3.42;;;15.20;57.20;;;;;;4982054;28;20038;-68
2022/04/24 09:49:39;;;;;;;8.35;2.80;;;15.10;56.70;;;;;;4976700;28;20465;-68
2022/04/24 09:52:17;;;;;;;5.28;3.03;;;15.10;56.40;;;;;;4992614;28;20042;-68
2022/04/24 09:54:44;;;;;;;4.25;2.75;;;15.20;57.50;;;;;;4992865;28;20423;-68
2022/04/24 09:57:12;;;;;;;5.15;3.00;;;15.10;57.10;;;;;;4986556;28;20045;-67
2022/04/24 09:59:39;;;;;;;5.25;3.20;;;14.90;56.40;;;;;;5012385;28;20041;-67
2022/04/24 10:02:05;;;;;;;5.25;2.90;;;15.10;56.50;;;;;;5012209;28;20152;-67
2022/04/24 10:04:36;;;;;;;5.65;3.60;;;15.10;56.20;;;;;;5012358;28;20523;-67
2022/04/24 10:07:08;;;;;;;3.92;2.90;;;14.90;56.30;;;;;;5012552;28;20404;-67
2022/04/24 10:09:36;;;;;;;4.90;3.20;;;15.10;57.30;;;;;;5012547;28;20042;-67
2022/04/24 10:12:09;;;;;;;6.80;3.42;;;15.20;56.70;;;;;;5012125;28;20037;-67
2022/04/24 10:14:42;;;;;;;5.40;3.00;;;15.20;55.90;;;;;;5012211;28;20045;-67
2022/04/24 10:17:33;;;;;;;7.47;3.30;;;15.00;56.30;;;;;;5008925;28;20037;-66
2022/04/24 10:20:18;;;;;;;5.63;3.28;;;15.00;57.30;;;;;;4992311;28;20034;-66
2022/04/24 10:22:50;;;;;;;4.65;2.90;;;15.10;57.30;;;;;;4999660;28;20103;-67
2022/04/24 10:25:16;;;;;;;5.57;2.80;;;15.10;57.60;;;;;;5012025;28;20045;-67
2022/04/24 10:27:47;;;;;;;6.95;2.72;;;15.10;57.50;;;;;;5011819;28;20050;-67
2022/04/24 10:30:24;;;;;;;5.25;2.92;;;15.10;57.30;;;;;;5011851;28;20042;-66
2022/04/24 10:33:18;;;;;;;3.50;2.80;;;15.10;57.10;;;;;;5012151;28;20125;-66
2022/04/24 10:35:48;;;;;;;4.45;2.90;;;15.20;58.10;;;;;;5011694;28;20042;-67
2022/04/24 10:38:14;;;;;;;5.75;3.70;;;15.20;57.20;;;;;;5011760;28;20112;-66
2022/04/24 10:40:40;;;;;;;4.00;3.08;;;15.30;57.30;;;;;;5010338;28;20037;-66
2022/04/24 10:43:10;;;;;;;6.93;2.92;;;15.30;56.10;;;;;;5011933;28;20030;-67
2022/04/24 10:45:46;;;;;;;4.90;2.78;;;15.20;55.50;;;;;;5010402;28;20046;-67
2022/04/24 10:48:16;;;;;;;5.65;2.65;;;15.30;56.30;;;;;;5011498;28;20407;-67
2022/04/24 10:50:49;;;;;;;4.15;3.13;;;15.40;56.40;;;;;;5011465;28;20060;-67
2022/04/24 10:53:15;;;;;;;5.35;2.83;;;15.20;55.40;;;;;;5011713;28;20034;-67
2022/04/24 10:55:42;;;;;;;5.78;2.90;;;15.20;56.20;;;;;;5011817;28;20088;-67
2022/04/24 10:58:09;;;;;;;3.65;3.00;;;15.30;55.20;;;;;;5011432;28;20120;-67
2022/04/24 11:00:36;;;;;;;6.75;2.70;;;15.30;54.90;;;;;;5009988;28;20045;-67
2022/04/24 11:03:20;;;;;;;6.00;2.42;;;15.10;54.80;;;;;;5011493;28;20108;-66
2022/04/24 11:05:46;;;;;;;;;;;15.20;54.70;;;;;;5011833;28;20522;-66
2022/04/24 11:08:20;;;;;;;3.38;2.13;;;15.30;54.50;;;;;;5010177;28;19921;-66
2022/04/24 11:10:49;;;;;;;4.78;2.60;;;15.30;53.90;;;;;;5012476;28;20444;-66
2022/04/24 11:13:18;;;;;;;3.97;2.28;;;15.20;52.20;;;;;;5010731;28;20034;-66
2022/04/24 11:15:47;;;;;;;5.88;2.33;;;15.10;52.80;;;;;;5005243;28;20044;-67
2022/04/24 11:18:24;;;;;;;3.47;2.13;;;15.30;53.10;;;;;;5006176;28;20041;-67
2022/04/24 11:20:58;;;;;;;5.25;2.72;;;15.40;52.30;;;;;;5003497;28;20100;-67
2022/04/24 11:23:31;;;;;;;4.13;2.50;;;15.50;51.90;;;;;;4995876;28;20039;-67
2022/04/24 11:25:58;;;;;;;5.93;2.78;;;15.50;52.40;;;;;;4995765;28;20400;-67
2022/04/24 11:28:52;;;;;;;10.00;2.45;;;15.30;52.80;;;;;;4995639;28;20086;-67
2022/04/24 11:31:22;;;;;;;5.38;3.58;;;15.30;54.00;;;;;;4994695;28;20054;-67
2022/04/24 11:33:50;;;;;;;6.15;2.63;;;15.20;53.60;;;;;;4995605;28;20048;-67
2022/04/24 11:36:16;;;;;;;7.13;3.30;;;15.20;54.40;;;;;;4995263;28;20069;-67
2022/04/24 11:38:44;;;;;;;5.05;3.00;;;15.30;54.50;;;;;;4995634;28;20058;-67
2022/04/24 11:41:14;;;;;;;4.82;2.80;;;15.30;54.00;;;;;;4995428;28;20046;-67
2022/04/24 11:43:40;;;;;;;4.38;2.55;;;15.20;54.50;;;;;;4995589;28;20074;-67
2022/04/24 11:51:39;;;;;;;5.32;3.45;;;15.50;54.80;;;;;;4995650;28;20073;-67
2022/04/24 11:54:11;;;;;;;4.85;3.38;;;15.50;54.70;;;;;;4995691;28;20057;-67
2022/04/24 11:56:37;;;;;;;4.10;3.20;;;15.40;54.20;;;;;;4995378;28;20088;-67
2022/04/24 11:59:20;;;;;;;4.93;3.20;;;15.40;54.40;;;;;;4993880;28;20034;-67
2022/04/24 12:01:56;;;;;;;7.55;3.85;;;15.40;55.60;;;;;;4995125;28;20035;-67
2022/04/24 12:04:22;;;;;;;6.15;3.55;;;15.20;54.40;;;;;;4995218;28;20038;-67
2022/04/24 12:06:48;;;;;;;6.18;3.13;;;15.20;55.40;;;;;;4995068;28;20062;-67
2022/04/24 12:09:14;;;;;;;3.47;2.65;;;15.30;54.30;;;;;;4995199;28;20050;-67
2022/04/24 12:11:40;;;;;;;4.97;3.10;;;15.10;53.90;;;;;;4994723;28;20045;-67
2022/04/24 12:14:15;;;;;;;9.70;3.47;;;15.20;54.30;;;;;;4995157;28;20049;-67
2022/04/24 12:16:47;;;;;;;8.27;3.80;;;15.20;55.40;;;;;;4994940;28;20042;-67
2022/04/24 12:19:17;;;;;;;6.75;3.40;;;14.90;56.20;;;;;;4994899;28;20042;-67
2022/04/24 12:21:51;;;;;;;4.00;3.15;;;14.90;57.30;;;;;;4993645;28;20495;-67
2022/04/24 12:24:17;;;;;;;7.15;4.00;;;15.20;56.20;;;;;;4994403;28;20073;-67
2022/04/24 12:26:51;;;;;;;5.57;3.95;;;15.20;57.10;;;;;;4994625;28;20034;-67
2022/04/24 12:29:17;;;;;;;5.95;3.17;;;15.40;57.80;;;;;;4997260;28;20047;-67
2022/04/24 12:31:47;;;;;;;6.18;3.33;;;15.50;57.60;;;;;;4994178;28;20038;-67
2022/04/24 12:34:14;;;;;;;6.20;3.63;;;15.30;57.70;;;;;;5000835;28;20042;-67
2022/04/24 12:36:52;;;;;;;6.15;4.07;;;15.40;58.60;;;;;;5003824;28;20046;-67
2022/04/24 12:39:25;;;;;;;8.77;4.53;;;15.10;59.10;;;;;;5006625;28;20125;-68
2022/04/24 12:41:51;;;;;;;6.78;4.63;;;14.90;59.80;;;;;;4984409;28;20046;-67
2022/04/24 12:44:17;;;;;;;6.47;4.07;;;14.80;60.60;;;;;;4984530;28;20034;-66
2022/04/24 12:46:43;;;;;;;7.32;4.25;;;14.80;60.00;;;;;;4981063;28;20031;-67
2022/04/24 12:49:09;;;;;;;4.00;3.47;;;14.80;59.80;;;;;;4974786;28;20046;-67
2022/04/24 12:51:34;;;;;;;10.82;3.65;;;15.00;59.70;;;;;;4974387;28;20572;-67
2022/04/24 12:54:02;;;;;;;8.30;4.15;;;15.10;58.90;;;;;;4974866;28;20043;-67